createdAt,value
2022-11-04T00:00:38.665Z,92.99
2022-11-04T00:01:38.620Z,92.78
2022-11-04T00:02:38.658Z,92.99
2022-11-04T00:03:38.620Z,93.09
2022-11-04T00:04:38.598Z,94.52
2022-11-04T00:05:39.207Z,94.52
2022-11-04T00:06:38.599Z,93.74
2022-11-04T00:07:38.574Z,94.21
2022-11-04T00:08:38.608Z,93.70
2022-11-04T00:09:38.558Z,93.80
2022-11-04T00:10:38.556Z,94.32
2022-11-04T00:11:38.537Z,93.60
2022-11-04T00:12:38.538Z,93.70
2022-11-04T00:13:38.521Z,93.80
2022-11-04T00:14:38.524Z,93.60
2022-11-04T00:15:38.508Z,93.60
2022-11-04T00:16:38.500Z,93.60
2022-11-04T00:17:38.489Z,93.80
2022-11-04T00:18:38.499Z,94.01
2022-11-04T00:19:38.515Z,93.80
2022-11-04T00:20:38.468Z,94.21
2022-11-04T00:21:38.458Z,94.73
2022-11-04T00:22:38.467Z,94.52
2022-11-04T00:23:38.438Z,94.73
2022-11-04T00:24:38.444Z,94.82
2022-11-04T00:25:38.516Z,95.03
2022-11-04T00:26:38.417Z,95.29
2022-11-04T00:27:38.406Z,94.73
2022-11-04T00:29:27.852Z,94.98
2022-11-04T00:30:27.660Z,95.54
2022-11-04T00:31:28.758Z,95.70
2022-11-04T00:32:28.744Z,95.54
2022-11-04T00:33:28.737Z,95.75
2022-11-04T00:34:28.724Z,95.95
2022-11-04T00:35:28.714Z,95.95
2022-11-04T00:36:28.723Z,95.95
2022-11-04T00:37:28.732Z,95.70
2022-11-04T00:38:28.721Z,95.90
2022-11-04T00:39:28.680Z,95.80
2022-11-04T00:40:28.683Z,95.80
2022-11-04T00:41:28.965Z,95.90
2022-11-04T00:42:28.658Z,95.39
2022-11-04T00:43:28.646Z,95.19
2022-11-04T00:44:28.636Z,94.89
2022-11-04T00:45:28.641Z,95.09
2022-11-04T00:46:28.623Z,94.98
2022-11-04T00:47:28.617Z,95.90
2022-11-04T00:48:28.616Z,95.60
2022-11-04T00:49:28.595Z,95.80
2022-11-04T00:50:28.642Z,95.76
2022-11-04T00:51:30.344Z,95.90
2022-11-04T00:52:28.578Z,95.56
2022-11-04T00:53:28.580Z,95.80
2022-11-04T00:54:28.557Z,95.80
2022-11-04T00:55:28.554Z,95.90
2022-11-04T00:56:28.546Z,95.70
2022-11-04T00:57:28.531Z,95.70
2022-11-04T00:58:28.538Z,95.70
2022-11-04T00:59:28.523Z,95.56
2022-11-04T01:00:28.506Z,95.76
2022-11-04T01:01:28.592Z,95.90
2022-11-04T01:02:28.624Z,95.70
2022-11-04T01:03:28.467Z,95.76
2022-11-04T01:04:29.480Z,95.65
2022-11-04T01:05:28.467Z,95.70
2022-11-04T01:06:28.461Z,95.65
2022-11-04T01:07:28.456Z,95.56
2022-11-04T01:08:30.430Z,95.70
2022-11-04T01:09:28.453Z,95.76
2022-11-04T01:10:28.420Z,95.60
2022-11-04T01:11:28.421Z,95.39
2022-11-04T01:12:28.433Z,95.35
2022-11-04T01:13:28.406Z,95.15
2022-11-04T01:14:29.326Z,95.35
2022-11-04T01:15:28.387Z,95.76
2022-11-04T01:17:29.376Z,95.90
2022-11-04T01:18:28.372Z,95.65
2022-11-04T01:19:28.349Z,95.70
2022-11-04T01:20:28.347Z,95.65
2022-11-04T01:21:28.338Z,95.76
2022-11-04T01:22:28.343Z,95.76
2022-11-04T01:23:28.333Z,95.65
2022-11-04T01:24:28.307Z,95.76
2022-11-04T01:25:30.300Z,96.01
2022-11-04T01:26:28.308Z,95.70
2022-11-04T01:27:28.306Z,95.70
2022-11-04T01:28:28.284Z,95.35
2022-11-04T01:29:28.284Z,94.89
2022-11-04T01:30:28.276Z,95.19
2022-11-04T01:31:28.259Z,95.39
2022-11-04T01:32:28.248Z,95.50
2022-11-04T01:33:28.265Z,95.80
2022-11-04T01:34:28.238Z,95.80
2022-11-04T01:35:28.225Z,95.70
2022-11-04T01:36:28.267Z,94.48
2022-11-04T01:37:28.205Z,94.98
2022-11-04T01:38:28.222Z,95.39
2022-11-04T01:39:28.207Z,95.09
2022-11-04T01:40:28.181Z,94.89
2022-11-04T01:41:28.197Z,94.89
2022-11-04T01:42:28.161Z,94.17
2022-11-04T01:43:28.155Z,94.23
2022-11-04T01:44:28.180Z,93.76
2022-11-04T01:45:28.152Z,93.82
2022-11-04T01:46:29.949Z,93.92
2022-11-04T01:47:28.152Z,93.62
2022-11-04T01:48:28.120Z,94.33
2022-11-04T01:49:28.117Z,92.80
2022-11-04T01:50:28.099Z,92.59
2022-11-04T01:51:28.087Z,92.69
2022-11-04T01:52:28.080Z,91.83
2022-11-04T01:53:28.092Z,91.98
2022-11-04T01:54:28.069Z,91.88
2022-11-04T01:55:28.065Z,91.94
2022-11-04T01:56:28.853Z,91.94
2022-11-04T01:57:28.040Z,91.57
2022-11-04T01:58:28.028Z,91.27
2022-11-04T01:59:28.023Z,91.57
2022-11-04T02:00:28.047Z,91.88
2022-11-04T02:01:28.163Z,91.88
2022-11-04T02:02:28.202Z,91.47
2022-11-04T02:03:28.011Z,91.57
2022-11-04T02:04:28.077Z,91.57
2022-11-04T02:05:27.991Z,91.63
2022-11-04T02:06:27.987Z,91.78
2022-11-04T02:07:28.010Z,91.16
2022-11-04T02:08:27.961Z,91.12
2022-11-04T02:09:28.029Z,90.96
2022-11-04T02:10:27.956Z,90.86
2022-11-04T02:11:27.935Z,90.61
2022-11-04T02:12:27.918Z,89.84
2022-11-04T02:13:28.917Z,90.00
2022-11-04T02:14:27.912Z,90.00
2022-11-04T02:15:27.920Z,89.79
2022-11-04T02:16:27.896Z,90.00
2022-11-04T02:17:27.882Z,89.90
2022-11-04T02:18:27.881Z,89.49
2022-11-04T02:19:27.875Z,89.79
2022-11-04T02:20:27.870Z,89.69
2022-11-04T02:21:27.857Z,89.79
2022-11-04T02:22:27.854Z,89.69
2022-11-04T02:23:27.844Z,89.69
2022-11-04T02:24:27.865Z,89.90
2022-11-04T02:25:28.425Z,89.08
2022-11-04T02:26:27.820Z,89.18
2022-11-04T02:27:27.857Z,89.18
2022-11-04T02:28:27.800Z,89.28
2022-11-04T02:29:27.802Z,89.08
2022-11-04T02:30:27.791Z,89.28
2022-11-04T02:31:27.786Z,88.78
2022-11-04T02:32:27.782Z,89.08
2022-11-04T02:33:27.756Z,89.28
2022-11-04T02:34:27.749Z,89.28
2022-11-04T02:35:27.751Z,89.08
2022-11-04T02:36:27.745Z,88.78
2022-11-04T02:37:27.732Z,88.88
2022-11-04T02:38:27.717Z,89.18
2022-11-04T02:39:27.714Z,88.98
2022-11-04T02:40:27.711Z,89.18
2022-11-04T02:41:27.711Z,89.08
2022-11-04T02:42:27.696Z,89.28
2022-11-04T02:43:27.683Z,89.28
2022-11-04T02:44:27.678Z,89.39
2022-11-04T02:45:28.348Z,89.59
2022-11-04T02:46:27.655Z,89.90
2022-11-04T02:47:27.655Z,89.69
2022-11-04T02:48:27.637Z,90.10
2022-11-04T02:49:27.636Z,89.59
2022-11-04T02:50:27.634Z,90.20
2022-11-04T02:51:27.659Z,90.31
2022-11-04T02:52:27.609Z,90.20
2022-11-04T02:53:27.612Z,89.39
2022-11-04T02:54:27.593Z,89.79
2022-11-04T02:55:28.447Z,89.69
2022-11-04T02:56:27.580Z,89.94
2022-11-04T02:57:27.579Z,89.49
2022-11-04T02:58:27.570Z,89.28
2022-11-04T02:59:27.550Z,89.84
2022-11-04T03:00:27.560Z,89.63
2022-11-04T03:01:27.641Z,89.23
2022-11-04T03:02:27.631Z,88.71
2022-11-04T03:03:27.528Z,88.71
2022-11-04T03:04:27.522Z,89.32
2022-11-04T03:05:27.514Z,89.02
2022-11-04T03:06:27.491Z,89.23
2022-11-04T03:07:27.486Z,89.23
2022-11-04T03:08:27.480Z,88.71
2022-11-04T03:09:27.480Z,88.41
2022-11-04T03:10:27.469Z,88.51
2022-11-04T03:11:27.454Z,88.20
2022-11-04T03:12:27.463Z,88.41
2022-11-04T03:13:27.432Z,88.20
2022-11-04T03:14:27.429Z,88.31
2022-11-04T03:15:27.431Z,88.31
2022-11-04T03:16:27.413Z,88.00
2022-11-04T03:17:27.417Z,87.90
2022-11-04T03:18:27.393Z,88.20
2022-11-04T03:19:27.384Z,88.10
2022-11-04T03:20:27.397Z,88.20
2022-11-04T03:21:27.372Z,87.49
2022-11-04T03:22:27.394Z,87.59
2022-11-04T03:23:27.367Z,87.63
2022-11-04T03:24:27.342Z,87.59
2022-11-04T03:25:27.349Z,87.59
2022-11-04T03:26:27.337Z,87.59
2022-11-04T03:27:27.331Z,87.70
2022-11-04T03:28:27.341Z,87.73
2022-11-04T03:29:27.317Z,86.98
2022-11-04T03:30:27.303Z,86.91
2022-11-04T03:31:27.291Z,86.36
2022-11-04T03:32:27.280Z,86.30
2022-11-04T03:33:27.267Z,86.10
2022-11-04T03:34:27.275Z,86.10
2022-11-04T03:35:27.936Z,85.79
2022-11-04T03:36:27.865Z,85.89
2022-11-04T03:37:27.234Z,86.00
2022-11-04T03:38:27.235Z,85.69
2022-11-04T03:39:27.860Z,85.63
2022-11-04T03:40:27.221Z,85.79
2022-11-04T03:41:27.208Z,85.38
2022-11-04T03:42:27.196Z,85.18
2022-11-04T03:43:27.188Z,85.42
2022-11-04T03:44:27.199Z,84.98
2022-11-04T03:45:27.181Z,85.12
2022-11-04T03:46:27.167Z,84.81
2022-11-04T03:47:27.161Z,84.20
2022-11-04T03:48:27.150Z,84.36
2022-11-04T03:49:27.147Z,84.61
2022-11-04T03:50:27.130Z,84.20
2022-11-04T03:51:27.122Z,84.09
2022-11-04T03:52:27.114Z,83.79
2022-11-04T03:54:27.939Z,83.89
2022-11-04T03:55:27.089Z,83.93
2022-11-04T03:56:27.091Z,84.41
2022-11-04T03:57:27.095Z,84.44
2022-11-04T03:58:27.069Z,84.65
2022-11-04T03:59:27.087Z,84.34
2022-11-04T04:00:28.007Z,84.65
2022-11-04T04:01:59.999Z,84.38
2022-11-04T04:02:27.036Z,84.44
2022-11-04T04:03:27.029Z,84.69
2022-11-04T04:04:27.038Z,84.17
2022-11-04T04:05:27.010Z,83.76
2022-11-04T04:06:27.021Z,83.87
2022-11-04T04:07:27.009Z,84.48
2022-11-04T04:08:26.987Z,84.48
2022-11-04T04:09:26.981Z,84.48
2022-11-04T04:10:26.970Z,84.48
2022-11-04T04:11:26.959Z,84.48
2022-11-04T04:12:26.958Z,84.42
2022-11-04T04:13:26.940Z,84.58
2022-11-04T04:14:26.936Z,84.48
2022-11-04T04:15:26.956Z,84.72
2022-11-04T04:16:27.904Z,84.17
2022-11-04T04:17:26.918Z,84.72
2022-11-04T04:18:26.895Z,84.01
2022-11-04T04:19:26.900Z,84.31
2022-11-04T04:20:26.889Z,84.31
2022-11-04T04:21:26.878Z,84.31
2022-11-04T04:22:26.869Z,83.91
2022-11-04T04:23:26.858Z,84.63
2022-11-04T04:24:26.865Z,84.52
2022-11-04T04:25:26.877Z,84.93
2022-11-04T04:26:26.833Z,84.83
2022-11-04T04:27:27.839Z,84.72
2022-11-04T04:28:26.820Z,85.03
2022-11-04T04:29:26.808Z,84.83
2022-11-04T04:30:26.808Z,85.64
2022-11-04T04:31:26.799Z,85.58
2022-11-04T04:32:26.789Z,85.79
2022-11-04T04:33:26.774Z,85.89
2022-11-04T04:34:26.776Z,85.38
2022-11-04T04:35:26.758Z,85.48
2022-11-04T04:36:27.506Z,85.79
2022-11-04T04:37:26.753Z,85.28
2022-11-04T04:38:26.745Z,85.48
2022-11-04T04:39:26.730Z,85.79
2022-11-04T04:40:26.758Z,85.58
2022-11-04T04:41:26.731Z,85.48
2022-11-04T04:42:26.702Z,85.42
2022-11-04T04:43:26.700Z,86.30
2022-11-04T04:44:26.697Z,85.42
2022-11-04T04:45:26.680Z,85.42
2022-11-04T04:46:26.670Z,85.79
2022-11-04T04:47:26.673Z,85.93
2022-11-04T04:48:26.661Z,86.14
2022-11-04T04:49:26.648Z,86.44
2022-11-04T04:50:26.641Z,86.85
2022-11-04T04:51:26.635Z,87.06
2022-11-04T04:52:26.626Z,86.96
2022-11-04T04:53:26.625Z,87.06
2022-11-04T04:54:26.610Z,86.96
2022-11-04T04:55:26.605Z,87.88
2022-11-04T04:56:26.616Z,87.98
2022-11-04T04:57:26.591Z,88.74
2022-11-04T04:58:26.579Z,89.11
2022-11-04T04:59:27.504Z,88.90
2022-11-04T05:00:26.561Z,89.92
2022-11-04T05:01:26.683Z,89.72
2022-11-04T05:02:26.623Z,90.13
2022-11-04T05:03:26.544Z,90.79
2022-11-04T05:04:27.420Z,90.69
2022-11-04T05:05:26.522Z,90.54
2022-11-04T05:06:26.530Z,90.07
2022-11-04T05:07:26.506Z,90.75
2022-11-04T05:08:26.512Z,90.84
2022-11-04T05:09:26.498Z,90.54
2022-11-04T05:10:26.480Z,90.75
2022-11-04T05:11:27.361Z,90.64
2022-11-04T05:12:27.468Z,90.75
2022-11-04T05:13:26.447Z,90.75
2022-11-04T05:14:26.469Z,90.54
2022-11-04T05:15:26.443Z,90.03
2022-11-04T05:16:26.436Z,90.34
2022-11-04T05:17:26.423Z,90.13
2022-11-04T05:18:26.421Z,90.34
2022-11-04T05:19:26.411Z,90.54
2022-11-04T05:20:26.389Z,90.54
2022-11-04T05:21:26.387Z,90.44
2022-11-04T05:22:26.372Z,90.03
2022-11-04T05:23:26.370Z,90.44
2022-11-04T05:24:26.357Z,90.64
2022-11-04T05:25:26.360Z,90.84
2022-11-04T05:26:26.344Z,90.95
2022-11-04T05:27:26.374Z,91.16
2022-11-04T05:28:26.345Z,90.95
2022-11-04T05:29:26.331Z,90.84
2022-11-04T05:30:26.312Z,90.75
2022-11-04T05:31:26.301Z,90.95
2022-11-04T05:32:26.303Z,90.84
2022-11-04T05:33:26.285Z,90.84
2022-11-04T05:34:26.295Z,90.54
2022-11-04T05:35:26.271Z,90.84
2022-11-04T05:36:26.262Z,90.64
2022-11-04T05:37:26.260Z,90.84
2022-11-04T05:38:27.006Z,90.64
2022-11-04T05:39:26.234Z,90.79
2022-11-04T05:40:26.240Z,90.64
2022-11-04T05:41:26.221Z,90.79
2022-11-04T05:42:26.210Z,91.05
2022-11-04T05:43:26.203Z,90.64
2022-11-04T05:44:27.020Z,91.05
2022-11-04T05:45:26.195Z,90.95
2022-11-04T05:46:26.184Z,90.75
2022-11-04T05:47:26.180Z,90.44
2022-11-04T05:48:27.011Z,90.79
2022-11-04T05:49:26.179Z,90.54
2022-11-04T05:50:27.018Z,90.99
2022-11-04T05:51:26.138Z,90.48
2022-11-04T05:52:26.138Z,91.09
2022-11-04T05:54:26.117Z,90.79
2022-11-04T05:55:26.133Z,91.09
2022-11-04T05:56:26.103Z,91.30
2022-11-04T05:57:26.094Z,91.30
2022-11-04T05:58:26.083Z,91.24
2022-11-04T05:59:26.072Z,91.44
2022-11-04T06:00:26.120Z,91.14
2022-11-04T06:01:26.146Z,91.55
2022-11-04T06:02:26.201Z,91.44
2022-11-04T06:03:26.058Z,91.35
2022-11-04T06:04:26.040Z,91.69
2022-11-04T06:05:26.033Z,91.55
2022-11-04T06:06:26.047Z,91.59
2022-11-04T06:07:26.018Z,91.59
2022-11-04T06:08:26.008Z,91.69
2022-11-04T06:09:25.997Z,91.80
2022-11-04T06:10:25.990Z,91.80
2022-11-04T06:11:26.987Z,92.00
2022-11-04T06:12:25.974Z,92.00
2022-11-04T06:13:25.981Z,91.90
2022-11-04T06:14:25.965Z,91.49
2022-11-04T06:15:25.963Z,91.69
2022-11-04T06:16:25.978Z,91.80
2022-11-04T06:17:25.938Z,91.80
2022-11-04T06:18:25.933Z,91.80
2022-11-04T06:19:25.936Z,91.59
2022-11-04T06:20:25.905Z,91.90
2022-11-04T06:21:25.907Z,91.69
2022-11-04T06:22:25.905Z,92.10
2022-11-04T06:23:25.956Z,92.41
2022-11-04T06:24:25.895Z,92.14
2022-11-04T06:25:25.871Z,91.94
2022-11-04T06:26:28.289Z,92.51
2022-11-04T06:27:26.867Z,92.35
2022-11-04T06:28:25.852Z,91.59
2022-11-04T06:29:26.448Z,91.69
2022-11-04T06:30:25.833Z,91.80
2022-11-04T06:31:25.819Z,92.14
2022-11-04T06:32:25.911Z,92.14
2022-11-04T06:33:25.803Z,92.35
2022-11-04T06:34:25.796Z,92.41
2022-11-04T06:35:25.793Z,92.46
2022-11-04T06:36:25.782Z,92.35
2022-11-04T06:37:26.439Z,92.31
2022-11-04T06:38:25.767Z,92.46
2022-11-04T06:39:25.772Z,92.46
2022-11-04T06:40:25.745Z,93.48
2022-11-04T06:41:25.755Z,93.17
2022-11-04T06:42:25.734Z,92.97
2022-11-04T06:43:25.723Z,93.17
2022-11-04T06:44:25.729Z,92.86
2022-11-04T06:45:25.704Z,93.07
2022-11-04T06:46:25.713Z,93.07
2022-11-04T06:47:25.684Z,92.91
2022-11-04T06:48:25.694Z,93.01
2022-11-04T06:49:25.682Z,93.27
2022-11-04T06:50:25.662Z,92.97
2022-11-04T06:51:25.647Z,93.38
2022-11-04T06:52:25.650Z,93.32
2022-11-04T06:53:25.647Z,93.21
2022-11-04T06:54:25.642Z,92.91
2022-11-04T06:55:25.616Z,93.01
2022-11-04T06:56:25.617Z,93.01
2022-11-04T06:57:25.608Z,93.12
2022-11-04T06:58:25.608Z,93.32
2022-11-04T06:59:25.603Z,92.76
2022-11-04T07:00:25.584Z,93.27
2022-11-04T07:01:25.838Z,93.48
2022-11-04T07:02:25.734Z,93.38
2022-11-04T07:03:25.562Z,93.59
2022-11-04T07:04:25.542Z,93.59
2022-11-04T07:05:25.565Z,93.17
2022-11-04T07:06:25.529Z,93.89
2022-11-04T07:07:25.564Z,93.48
2022-11-04T07:08:25.533Z,93.07
2022-11-04T07:09:25.501Z,93.07
2022-11-04T07:10:25.491Z,92.97
2022-11-04T07:11:26.523Z,92.97
2022-11-04T07:12:26.040Z,92.86
2022-11-04T07:13:25.497Z,93.07
2022-11-04T07:14:25.466Z,92.76
2022-11-04T07:15:27.622Z,92.97
2022-11-04T07:16:27.062Z,93.07
2022-11-04T07:17:25.455Z,92.86
2022-11-04T07:18:25.442Z,92.97
2022-11-04T07:19:25.419Z,93.07
2022-11-04T07:20:25.425Z,93.32
2022-11-04T07:21:25.402Z,93.17
2022-11-04T07:22:25.412Z,92.66
2022-11-04T07:23:25.398Z,92.97
2022-11-04T07:24:25.957Z,92.86
2022-11-04T07:25:26.380Z,92.97
2022-11-04T07:26:25.361Z,92.97
2022-11-04T07:27:25.374Z,93.27
2022-11-04T07:28:25.345Z,93.17
2022-11-04T07:29:25.348Z,92.76
2022-11-04T07:30:25.326Z,92.55
2022-11-04T07:31:25.952Z,92.21
2022-11-04T07:32:25.318Z,92.72
2022-11-04T07:33:25.312Z,92.41
2022-11-04T07:34:25.319Z,92.10
2022-11-04T07:35:25.290Z,92.21
2022-11-04T07:36:25.295Z,92.00
2022-11-04T07:37:26.052Z,91.80
2022-11-04T07:38:25.270Z,91.35
2022-11-04T07:39:25.265Z,91.38
2022-11-04T07:40:25.248Z,91.69
2022-11-04T07:41:25.231Z,91.24
2022-11-04T07:42:25.231Z,91.35
2022-11-04T07:43:25.225Z,91.75
2022-11-04T07:44:25.218Z,91.35
2022-11-04T07:45:25.213Z,91.14
2022-11-04T07:46:25.203Z,90.83
2022-11-04T07:47:25.188Z,90.37
2022-11-04T07:48:25.190Z,90.01
2022-11-04T07:49:25.195Z,90.07
2022-11-04T07:50:25.264Z,89.97
2022-11-04T07:51:25.170Z,90.17
2022-11-04T07:52:25.152Z,89.42
2022-11-04T07:53:25.350Z,89.15
2022-11-04T07:54:25.150Z,89.31
2022-11-04T07:55:25.146Z,89.72
2022-11-04T07:56:25.147Z,89.83
2022-11-04T07:57:26.043Z,89.72
2022-11-04T07:58:25.100Z,89.00
2022-11-04T07:59:25.579Z,88.39
2022-11-04T08:00:25.963Z,87.77
2022-11-04T08:01:25.401Z,87.77
2022-11-04T08:02:28.612Z,87.98
2022-11-04T08:03:27.300Z,88.70
2022-11-04T08:04:25.062Z,88.90
2022-11-04T08:05:25.052Z,89.31
2022-11-04T08:06:25.047Z,89.51
2022-11-04T08:07:25.028Z,88.80
2022-11-04T08:08:25.027Z,89.21
2022-11-04T08:09:25.203Z,89.31
2022-11-04T08:10:25.060Z,89.27
2022-11-04T08:11:24.993Z,88.76
2022-11-04T08:12:24.991Z,88.82
2022-11-04T08:13:24.991Z,88.86
2022-11-04T08:14:24.988Z,88.45
2022-11-04T08:15:25.556Z,88.00
2022-11-04T08:16:27.713Z,87.63
2022-11-04T08:17:25.947Z,87.18
2022-11-04T08:18:25.946Z,86.88
2022-11-04T08:19:24.936Z,86.36
2022-11-04T08:20:24.974Z,86.46
2022-11-04T08:21:24.914Z,86.05
2022-11-04T08:22:27.632Z,85.75
2022-11-04T08:23:26.911Z,85.85
2022-11-04T08:24:24.891Z,85.71
2022-11-04T08:25:24.921Z,84.89
2022-11-04T08:26:24.875Z,84.58
2022-11-04T08:27:24.866Z,84.89
2022-11-04T08:28:25.546Z,85.30
2022-11-04T08:29:24.863Z,84.79
2022-11-04T08:30:24.840Z,85.40
2022-11-04T08:31:24.864Z,84.85
2022-11-04T08:32:24.826Z,84.75
2022-11-04T08:33:24.841Z,84.58
2022-11-04T08:34:24.812Z,83.73
2022-11-04T08:35:24.812Z,83.73
2022-11-04T08:36:24.813Z,83.66
2022-11-04T08:37:24.792Z,84.85
2022-11-04T08:38:25.073Z,84.24
2022-11-04T08:39:24.793Z,84.85
2022-11-04T08:40:24.779Z,84.65
2022-11-04T08:41:24.756Z,84.14
2022-11-04T08:42:24.753Z,84.85
2022-11-04T08:43:24.744Z,84.34
2022-11-04T08:44:24.756Z,84.95
2022-11-04T08:45:26.137Z,84.65
2022-11-04T08:46:24.709Z,84.44
2022-11-04T08:47:24.725Z,84.65
2022-11-04T08:48:24.698Z,84.41
2022-11-04T08:49:25.551Z,84.65
2022-11-04T08:50:24.689Z,84.41
2022-11-04T08:51:25.561Z,84.81
2022-11-04T08:52:24.666Z,84.09
2022-11-04T08:53:24.656Z,83.24
2022-11-04T08:54:24.656Z,83.24
2022-11-04T08:55:24.672Z,82.28
2022-11-04T08:56:24.640Z,81.98
2022-11-04T08:57:24.631Z,81.98
2022-11-04T08:58:24.626Z,81.67
2022-11-04T08:59:24.609Z,81.84
2022-11-04T09:00:24.613Z,80.71
2022-11-04T09:01:24.608Z,80.20
2022-11-04T09:02:24.588Z,80.16
2022-11-04T09:03:24.608Z,79.69
2022-11-04T09:04:24.569Z,79.66
2022-11-04T09:05:24.568Z,79.25
2022-11-04T09:06:24.552Z,78.74
2022-11-04T09:07:25.074Z,78.12
2022-11-04T09:08:24.539Z,78.02
2022-11-04T09:09:24.544Z,78.19
2022-11-04T09:10:24.549Z,77.48
2022-11-04T09:11:24.524Z,77.37
2022-11-04T09:12:24.513Z,77.27
2022-11-04T09:13:24.494Z,76.87
2022-11-04T09:14:24.527Z,76.97
2022-11-04T09:15:24.477Z,77.07
2022-11-04T09:16:24.485Z,76.87
2022-11-04T09:17:24.460Z,76.62
2022-11-04T09:18:24.465Z,76.22
2022-11-04T09:19:24.455Z,76.08
2022-11-04T09:20:24.454Z,76.28
2022-11-04T09:21:24.429Z,76.93
2022-11-04T09:22:24.421Z,77.98
2022-11-04T09:23:24.430Z,77.58
2022-11-04T09:24:24.408Z,76.53
2022-11-04T09:25:24.437Z,75.40
2022-11-04T09:26:24.591Z,75.78
2022-11-04T09:27:25.291Z,76.12
2022-11-04T09:28:24.431Z,76.22
2022-11-04T09:29:24.372Z,76.12
2022-11-04T09:30:25.060Z,76.12
2022-11-04T09:31:24.357Z,76.25
2022-11-04T09:32:24.352Z,76.73
2022-11-04T09:33:24.335Z,76.12
2022-11-04T09:34:24.329Z,76.22
2022-11-04T09:35:24.327Z,75.92
2022-11-04T09:36:24.405Z,76.18
2022-11-04T09:37:24.302Z,76.18
2022-11-04T09:38:24.304Z,76.08
2022-11-04T09:39:24.296Z,75.98
2022-11-04T09:40:24.281Z,74.86
2022-11-04T09:41:24.277Z,74.96
2022-11-04T09:42:24.268Z,75.98
2022-11-04T09:43:24.354Z,75.37
2022-11-04T09:44:24.248Z,75.88
2022-11-04T09:45:24.233Z,75.16
2022-11-04T09:46:24.238Z,75.88
2022-11-04T09:47:24.224Z,75.67
2022-11-04T09:48:24.216Z,75.88
2022-11-04T09:49:24.227Z,75.57
2022-11-04T09:50:25.065Z,76.08
2022-11-04T09:51:48.063Z,76.18
2022-11-04T09:52:26.183Z,75.78
2022-11-04T09:53:24.167Z,75.98
2022-11-04T09:54:24.172Z,75.16
2022-11-04T09:55:24.166Z,74.99
2022-11-04T09:56:24.167Z,76.22
2022-11-04T09:57:24.149Z,76.01
2022-11-04T09:58:24.226Z,76.22
2022-11-04T09:59:24.268Z,76.32
2022-11-04T10:00:24.108Z,75.10
2022-11-04T10:01:25.226Z,75.10
2022-11-04T10:02:26.102Z,76.62
2022-11-04T10:03:24.087Z,75.98
2022-11-04T10:04:24.079Z,76.18
2022-11-04T10:05:25.021Z,76.32
2022-11-04T10:06:24.620Z,76.73
2022-11-04T10:07:24.049Z,76.32
2022-11-04T10:08:24.067Z,76.62
2022-11-04T10:09:24.043Z,76.25
2022-11-04T10:10:24.025Z,76.15
2022-11-04T10:11:24.028Z,76.25
2022-11-04T10:12:24.029Z,76.22
2022-11-04T10:13:25.008Z,75.71
2022-11-04T10:14:24.019Z,75.40
2022-11-04T10:15:24.080Z,75.92
2022-11-04T10:16:24.015Z,75.34
2022-11-04T10:17:23.991Z,76.53
2022-11-04T10:18:23.977Z,76.01
2022-11-04T10:19:23.956Z,76.15
2022-11-04T10:20:23.962Z,76.42
2022-11-04T10:21:24.929Z,76.62
2022-11-04T10:22:24.530Z,75.71
2022-11-04T10:23:23.922Z,76.22
2022-11-04T10:24:23.918Z,75.81
2022-11-04T10:25:23.935Z,76.01
2022-11-04T10:26:23.907Z,76.25
2022-11-04T10:27:23.894Z,76.15
2022-11-04T10:28:23.884Z,76.15
2022-11-04T10:29:23.873Z,76.53
2022-11-04T10:30:23.891Z,76.22
2022-11-04T10:31:24.009Z,76.83
2022-11-04T10:32:23.871Z,76.42
2022-11-04T10:33:23.859Z,76.53
2022-11-04T10:34:23.832Z,76.42
2022-11-04T10:35:23.837Z,76.53
2022-11-04T10:36:23.854Z,76.18
2022-11-04T10:37:23.805Z,76.18
2022-11-04T10:38:23.812Z,76.08
2022-11-04T10:39:23.796Z,75.98
2022-11-04T10:40:23.799Z,75.67
2022-11-04T10:41:23.776Z,76.08
2022-11-04T10:42:23.775Z,76.15
2022-11-04T10:43:23.755Z,75.95
2022-11-04T10:44:23.754Z,75.02
2022-11-04T10:45:23.755Z,74.89
2022-11-04T10:46:23.740Z,75.20
2022-11-04T10:47:23.821Z,73.84
2022-11-04T10:48:23.726Z,73.33
2022-11-04T10:49:23.723Z,73.74
2022-11-04T10:50:31.599Z,73.74
2022-11-04T10:51:25.695Z,72.82
2022-11-04T10:52:23.701Z,73.43
2022-11-04T10:53:23.682Z,73.94
2022-11-04T10:54:23.688Z,73.33
2022-11-04T10:55:24.134Z,73.09
2022-11-04T10:56:23.687Z,72.72
2022-11-04T10:57:23.712Z,72.11
2022-11-04T10:58:23.641Z,71.87
2022-11-04T10:59:23.671Z,71.50
2022-11-04T11:00:24.620Z,71.47
2022-11-04T11:01:27.679Z,71.67
2022-11-04T11:02:23.729Z,71.64
2022-11-04T11:03:23.599Z,71.73
2022-11-04T11:04:23.591Z,71.33
2022-11-04T11:05:23.757Z,71.53
2022-11-04T11:06:23.585Z,70.68
2022-11-04T11:07:23.580Z,70.59
2022-11-04T11:08:23.576Z,70.28
2022-11-04T11:09:23.549Z,70.28
2022-11-04T11:10:23.546Z,70.18
2022-11-04T11:11:23.530Z,70.62
2022-11-04T11:12:50.073Z,70.52
2022-11-04T11:13:25.546Z,70.62
2022-11-04T11:14:23.502Z,70.11
2022-11-04T11:15:23.505Z,70.68
2022-11-04T11:16:24.113Z,70.55
2022-11-04T11:17:23.500Z,69.74
2022-11-04T11:18:23.477Z,69.40
2022-11-04T11:19:23.461Z,69.30
2022-11-04T11:20:24.013Z,68.52
2022-11-04T11:21:23.451Z,69.03
2022-11-04T11:22:23.457Z,68.32
2022-11-04T11:23:23.457Z,67.81
2022-11-04T11:24:23.423Z,67.20
2022-11-04T11:25:23.430Z,67.50
2022-11-04T11:26:23.409Z,67.41
2022-11-04T11:27:23.411Z,68.73
2022-11-04T11:28:23.382Z,68.32
2022-11-04T11:29:23.387Z,67.47
2022-11-04T11:30:23.401Z,67.61
2022-11-04T11:31:23.397Z,67.27
2022-11-04T11:32:23.352Z,68.19
2022-11-04T11:33:23.355Z,67.17
2022-11-04T11:34:23.337Z,67.47
2022-11-04T11:35:23.326Z,67.47
2022-11-04T11:36:23.330Z,67.47
2022-11-04T11:37:23.310Z,68.22
2022-11-04T11:38:23.312Z,67.68
2022-11-04T11:39:23.325Z,68.08
2022-11-04T11:40:23.317Z,67.98
2022-11-04T11:41:25.195Z,67.07
2022-11-04T11:42:24.282Z,67.34
2022-11-04T11:43:24.177Z,67.27
2022-11-04T11:44:23.296Z,67.10
2022-11-04T11:45:23.262Z,67.71
2022-11-04T11:46:23.309Z,69.13
2022-11-04T11:47:23.229Z,68.12
2022-11-04T11:48:23.224Z,68.01
2022-11-04T11:49:23.221Z,67.50
2022-11-04T11:50:23.253Z,67.20
2022-11-04T11:51:26.320Z,68.32
2022-11-04T11:52:24.225Z,68.73
2022-11-04T11:53:23.192Z,68.15
2022-11-04T11:54:23.192Z,68.86
2022-11-04T11:55:23.176Z,69.26
2022-11-04T11:56:23.168Z,69.60
2022-11-04T11:57:25.545Z,69.81
2022-11-04T12:00:42.043Z,70.42
2022-11-04T12:01:25.626Z,70.62
2022-11-04T12:02:24.313Z,70.59
2022-11-04T12:03:24.176Z,70.48
2022-11-04T12:06:25.222Z,70.08
2022-11-04T12:09:27.608Z,70.42
2022-11-04T12:10:49.208Z,69.81
2022-11-04T12:11:25.099Z,69.60
2022-11-04T12:12:23.056Z,69.40
2022-11-04T12:13:24.623Z,70.52
2022-11-04T12:14:24.046Z,70.52
2022-11-04T12:15:23.012Z,70.62
2022-11-04T12:16:23.019Z,70.48
2022-11-04T12:17:23.993Z,69.17
2022-11-04T12:18:23.006Z,69.13
2022-11-04T12:19:22.979Z,69.03
2022-11-04T12:20:22.977Z,68.73
2022-11-04T12:21:22.984Z,67.78
2022-11-04T12:22:22.955Z,68.08
2022-11-04T12:23:24.551Z,67.24
2022-11-04T12:24:22.943Z,67.14
2022-11-04T12:25:22.930Z,67.24
2022-11-04T12:26:22.937Z,66.19
2022-11-04T12:27:22.924Z,65.39
2022-11-04T12:28:22.913Z,65.21
2022-11-04T12:29:22.901Z,65.65
2022-11-04T12:30:30.962Z,66.33
2022-11-04T12:31:24.881Z,66.19
2022-11-04T12:32:22.902Z,65.72
2022-11-04T12:33:22.864Z,66.19
2022-11-04T12:34:22.868Z,65.59
2022-11-04T12:35:22.857Z,65.18
2022-11-04T12:36:22.849Z,65.79
2022-11-04T12:37:22.838Z,67.00
2022-11-04T12:38:22.826Z,66.40
2022-11-04T12:39:22.827Z,65.18
2022-11-04T12:40:23.552Z,65.21
2022-11-04T12:42:06.428Z,65.31
2022-11-04T12:42:31.397Z,65.52
2022-11-04T12:43:24.825Z,65.72
2022-11-04T12:44:22.780Z,65.65
2022-11-04T12:45:22.769Z,65.34
2022-11-04T12:46:22.772Z,65.24
2022-11-04T12:47:22.784Z,65.24
2022-11-04T12:48:22.775Z,65.14
2022-11-04T12:49:22.743Z,65.68
2022-11-04T12:50:22.739Z,64.97
2022-11-04T12:51:22.727Z,66.49
2022-11-04T12:52:22.730Z,64.94
2022-11-04T12:53:22.707Z,65.14
2022-11-04T12:54:22.701Z,64.76
2022-11-04T12:55:22.711Z,64.94
2022-11-04T12:56:22.684Z,64.94
2022-11-04T12:57:22.696Z,65.14
2022-11-04T12:58:22.670Z,65.04
2022-11-04T12:59:23.551Z,64.94
2022-11-04T13:00:22.660Z,65.14
2022-11-04T13:01:22.772Z,65.14
2022-11-04T13:02:22.727Z,65.34